createdAt,value
2019-05-17T00:02:33.148Z,99050.43
2019-05-17T00:05:38.247Z,99052.22
2019-05-17T00:08:43.453Z,99047.16
2019-05-17T00:11:48.530Z,99041.59
2019-05-17T00:14:53.696Z,99032.80
2019-05-17T00:17:58.769Z,99033.09
2019-05-17T00:21:04.081Z,99020.10
2019-05-17T00:24:09.382Z,99020.39
2019-05-17T00:27:14.621Z,99011.80
2019-05-17T00:30:20.411Z,99016.65
2019-05-17T00:33:27.248Z,99007.24
2019-05-17T00:36:33.693Z,99001.30
2019-05-17T00:39:38.860Z,99001.16
2019-05-17T00:42:46.428Z,98999.76
2019-05-17T00:45:50.846Z,99001.07
2019-05-17T00:48:57.319Z,98992.59
2019-05-17T00:52:02.574Z,99000.58
2019-05-17T00:55:08.076Z,98994.75
2019-05-17T00:58:13.335Z,98986.58
2019-05-17T01:01:18.546Z,98987.72
2019-05-17T01:04:23.709Z,98983.92
2019-05-17T01:07:28.931Z,98981.59
2019-05-17T01:10:34.071Z,98978.27
2019-05-17T01:13:39.382Z,98982.88
2019-05-17T01:16:44.543Z,98986.74
2019-05-17T01:19:50.785Z,98981.53
2019-05-17T01:22:56.664Z,98978.61
2019-05-17T01:26:02.023Z,98969.12
2019-05-17T01:29:07.300Z,98969.44
2019-05-17T01:32:12.557Z,98963.33
2019-05-17T01:35:17.736Z,98967.20
2019-05-17T01:38:22.879Z,98964.97
2019-05-17T01:41:28.030Z,98957.72
2019-05-17T01:44:33.171Z,98961.95
2019-05-17T01:47:38.350Z,98950.27
2019-05-17T01:50:43.506Z,98951.85
2019-05-17T01:53:48.715Z,98954.67
2019-05-17T01:56:53.860Z,98952.95
2019-05-17T01:59:59.019Z,98949.06
2019-05-17T02:03:06.786Z,98951.05
2019-05-17T02:06:11.135Z,98943.89
2019-05-17T02:09:32.304Z,98947.80
2019-05-17T02:12:23.182Z,98948.69
2019-05-17T02:15:28.311Z,98943.77
2019-05-17T02:18:33.545Z,98937.50
2019-05-17T02:21:39.084Z,98942.71
2019-05-17T02:24:46.448Z,98941.20
2019-05-17T02:27:52.682Z,98940.03
2019-05-17T02:30:58.339Z,98940.68
2019-05-17T02:34:03.962Z,98935.27
2019-05-17T02:37:09.163Z,98938.31
2019-05-17T02:40:15.263Z,98932.94
2019-05-17T02:43:23.345Z,98937.18
2019-05-17T02:46:27.591Z,98933.47
2019-05-17T02:49:33.272Z,98932.86
2019-05-17T02:52:38.498Z,98925.58
2019-05-17T02:55:43.746Z,98925.05
2019-05-17T02:58:48.896Z,98922.36
2019-05-17T03:01:54.058Z,98926.44
2019-05-17T03:04:59.202Z,98926.92
2019-05-17T03:08:04.770Z,98923.78
2019-05-17T03:11:13.480Z,98923.63
2019-05-17T03:14:22.983Z,98926.39
2019-05-17T03:17:28.315Z,98917.65
2019-05-17T03:20:33.612Z,98914.36
2019-05-17T03:23:38.793Z,98912.59
2019-05-17T03:26:44.006Z,98909.98
2019-05-17T03:29:49.186Z,98906.17
2019-05-17T03:32:56.739Z,98909.75
2019-05-17T03:36:06.554Z,98902.42
2019-05-17T03:39:09.265Z,98902.14
2019-05-17T03:42:14.494Z,98900.80
2019-05-17T03:45:22.568Z,98897.66
2019-05-17T03:48:26.572Z,98906.98
2019-05-17T03:51:33.257Z,98905.35
2019-05-17T03:54:38.670Z,98906.30
2019-05-17T03:57:44.488Z,98906.61
2019-05-17T04:00:49.668Z,98903.34
2019-05-17T04:03:54.794Z,98898.34
2019-05-17T04:07:03.147Z,98904.32
2019-05-17T04:10:07.892Z,98900.01
2019-05-17T04:13:13.214Z,98902.00
2019-05-17T04:16:18.467Z,98898.59
2019-05-17T04:19:23.626Z,98902.77
2019-05-17T04:22:28.784Z,98896.92
2019-05-17T04:25:34.105Z,98895.31
2019-05-17T04:28:39.246Z,98894.66
2019-05-17T04:31:44.613Z,98895.89
2019-05-17T04:34:52.399Z,98893.92
2019-05-17T04:37:57.302Z,98895.90
2019-05-17T04:41:03.478Z,98890.06
2019-05-17T04:44:08.784Z,98898.34
2019-05-17T04:47:14.053Z,98898.00
2019-05-17T04:50:19.186Z,98908.97
2019-05-17T04:53:24.363Z,98905.88
2019-05-17T04:56:29.451Z,98906.91
2019-05-17T04:59:34.660Z,98907.20
2019-05-17T05:02:39.881Z,98908.23
2019-05-17T05:05:45.032Z,98906.56
2019-05-17T05:08:52.797Z,98910.34
2019-05-17T05:12:04.816Z,98903.28
2019-05-17T05:15:04.166Z,98902.39
2019-05-17T05:18:12.896Z,98905.92
2019-05-17T05:21:16.542Z,98904.94
2019-05-17T05:24:22.350Z,98912.16
2019-05-17T05:27:28.657Z,98915.80
2019-05-17T05:30:33.856Z,98903.37
2019-05-17T05:33:38.929Z,98905.66
2019-05-17T05:36:44.205Z,98913.84
2019-05-17T05:39:51.733Z,98916.68
2019-05-17T05:42:56.142Z,98913.70
2019-05-17T05:46:02.560Z,98909.81
2019-05-17T05:49:08.048Z,98907.25
2019-05-17T05:52:13.366Z,98913.20
2019-05-17T05:55:19.529Z,98915.48
2019-05-17T05:58:24.723Z,98916.49
2019-05-17T06:01:32.407Z,98920.92
2019-05-17T06:04:36.691Z,98911.53
2019-05-17T06:07:42.162Z,98913.61
2019-05-17T06:10:47.318Z,98923.91
2019-05-17T06:13:52.496Z,98918.06
2019-05-17T06:16:57.768Z,98907.55
2019-05-17T06:20:03.104Z,98915.20
2019-05-17T06:23:08.390Z,98909.86
2019-05-17T06:26:13.616Z,98916.13
2019-05-17T06:29:18.748Z,98916.42
2019-05-17T06:32:23.964Z,98912.78
2019-05-17T06:35:32.361Z,98914.88
2019-05-17T06:38:37.073Z,98910.09
2019-05-17T06:41:42.168Z,98907.86
2019-05-17T06:44:47.363Z,98914.03
2019-05-17T06:47:52.496Z,98910.39
2019-05-17T06:50:57.679Z,98911.02
2019-05-17T06:54:02.811Z,98907.92
2019-05-17T06:57:12.779Z,98910.20
2019-05-17T07:00:20.893Z,98905.83
2019-05-17T07:03:24.677Z,98903.00
2019-05-17T07:06:34.466Z,98902.19
2019-05-17T07:09:40.120Z,98902.50
2019-05-17T07:12:55.937Z,98904.18
2019-05-17T07:15:52.374Z,98903.69
2019-05-17T07:18:59.611Z,98904.02
2019-05-17T07:22:05.284Z,98903.72
2019-05-17T07:25:11.878Z,98896.30
2019-05-17T07:28:17.153Z,98899.53
2019-05-17T07:31:23.211Z,98901.20
2019-05-17T07:34:30.889Z,98896.63
2019-05-17T07:37:35.580Z,98896.50
2019-05-17T07:40:40.724Z,98899.13
2019-05-17T07:43:45.884Z,98897.67
2019-05-17T07:46:51.845Z,98897.16
2019-05-17T07:49:57.173Z,98892.35
2019-05-17T07:53:02.340Z,98895.73
2019-05-17T07:56:10.097Z,98895.09
2019-05-17T07:59:14.662Z,98890.23
2019-05-17T08:02:19.939Z,98882.76
2019-05-17T08:05:26.219Z,98880.03
2019-05-17T08:08:31.562Z,98878.83
2019-05-17T08:11:36.681Z,98877.74
2019-05-17T08:14:41.912Z,98874.80
2019-05-17T08:17:47.100Z,98874.92
2019-05-17T08:20:52.229Z,98875.39
2019-05-17T08:23:59.878Z,98868.39
2019-05-17T08:27:04.347Z,98870.41
2019-05-17T08:30:10.764Z,98873.23
2019-05-17T08:33:16.047Z,98867.69
2019-05-17T08:36:21.371Z,98865.98
2019-05-17T08:39:26.594Z,98866.64
2019-05-17T08:42:31.714Z,98851.55
2019-05-17T08:45:37.125Z,98843.09
2019-05-17T08:48:42.277Z,98843.63
2019-05-17T08:51:49.939Z,98839.81
2019-05-17T08:54:54.464Z,98843.31
2019-05-17T08:58:01.038Z,98840.36
2019-05-17T09:01:06.311Z,98843.61
2019-05-17T09:04:11.649Z,98838.51
2019-05-17T09:07:16.807Z,98838.00
2019-05-17T09:10:23.542Z,98827.58
2019-05-17T09:13:29.838Z,98824.36
2019-05-17T09:16:35.157Z,98824.59
2019-05-17T09:19:40.254Z,98824.92
2019-05-17T09:22:45.569Z,98817.56
2019-05-17T09:25:50.661Z,98805.60
2019-05-17T09:28:55.846Z,98810.43
2019-05-17T09:32:00.896Z,98807.78
2019-05-17T09:35:06.362Z,98801.89
2019-05-17T09:38:11.525Z,98801.34
2019-05-17T09:41:16.769Z,98802.23
2019-05-17T09:44:22.163Z,98799.34
2019-05-17T09:47:29.939Z,98805.38
2019-05-17T09:50:34.318Z,98802.70
2019-05-17T09:53:40.114Z,98789.06
2019-05-17T09:56:45.336Z,98790.56
2019-05-17T09:59:50.525Z,98787.45
2019-05-17T10:02:56.247Z,98783.27
2019-05-17T10:06:01.654Z,98780.75
2019-05-17T10:09:09.444Z,98780.58
2019-05-17T10:12:13.935Z,98777.14
2019-05-17T10:15:20.667Z,98778.51
2019-05-17T10:18:26.098Z,98775.23
2019-05-17T10:21:31.337Z,98769.81
2019-05-17T10:24:41.584Z,98766.85
2019-05-17T10:27:44.085Z,98765.50
2019-05-17T10:30:52.200Z,98770.09
2019-05-17T10:33:58.329Z,98768.75
2019-05-17T10:37:03.447Z,98765.92
2019-05-17T10:40:10.746Z,98770.74
2019-05-17T10:43:16.090Z,98765.29
2019-05-17T10:46:21.193Z,98770.59
2019-05-17T10:49:26.468Z,98763.23
2019-05-17T10:52:31.973Z,98769.35
2019-05-17T10:55:39.483Z,98767.58
2019-05-17T10:58:44.194Z,98760.73
2019-05-17T11:01:50.188Z,98755.44
2019-05-17T11:04:56.640Z,98753.80
2019-05-17T11:08:01.768Z,98757.77
2019-05-17T11:11:07.320Z,98759.36
2019-05-17T11:14:12.520Z,98753.39
2019-05-17T11:17:17.724Z,98758.86
2019-05-17T11:20:23.565Z,98750.98
2019-05-17T11:23:28.821Z,98748.45
2019-05-17T11:26:33.968Z,98738.01
2019-05-17T11:29:39.127Z,98739.91
2019-05-17T11:32:44.503Z,98742.87
2019-05-17T11:35:49.731Z,98743.47
2019-05-17T11:38:54.948Z,98742.16
2019-05-17T11:42:00.115Z,98750.30
2019-05-17T11:45:05.647Z,98742.64
2019-05-17T11:48:10.889Z,98740.22
2019-05-17T11:51:16.051Z,98743.01
2019-05-17T11:54:21.249Z,98743.47
2019-05-17T11:57:26.392Z,98748.65
2019-05-17T12:00:31.654Z,98738.94
2019-05-17T12:03:36.833Z,98727.86
2019-05-17T12:06:42.053Z,98728.83
2019-05-17T12:09:47.246Z,98725.28
2019-05-17T12:12:52.515Z,98718.22
2019-05-17T12:15:57.687Z,98723.28
2019-05-17T12:19:02.919Z,98714.01
2019-05-17T12:22:08.028Z,98713.45
2019-05-17T12:25:13.668Z,98721.31
2019-05-17T12:28:18.857Z,98715.95
2019-05-17T12:31:24.100Z,98708.86
2019-05-17T12:34:29.246Z,98698.52
2019-05-17T12:37:34.557Z,98698.52
2019-05-17T12:40:39.769Z,98701.52
2019-05-17T12:43:44.903Z,98707.67
2019-05-17T12:46:50.123Z,98701.41
2019-05-17T12:49:55.477Z,98693.70
2019-05-17T12:53:00.672Z,98693.58
2019-05-17T12:56:05.858Z,98693.11
2019-05-17T12:59:11.177Z,98697.52
2019-05-17T13:02:16.266Z,98690.47
2019-05-17T13:05:21.441Z,98694.19
2019-05-17T13:08:26.620Z,98680.67
2019-05-17T13:11:31.793Z,98684.21
2019-05-17T13:14:36.957Z,98678.71
2019-05-17T13:17:42.209Z,98682.32
2019-05-17T13:20:47.457Z,98676.72
2019-05-17T13:23:52.606Z,98671.34
2019-05-17T13:26:57.819Z,98670.82
2019-05-17T13:30:02.993Z,98675.81
2019-05-17T13:33:08.237Z,98669.82
2019-05-17T13:36:13.492Z,98667.91
2019-05-17T13:39:18.699Z,98667.81
2019-05-17T13:42:23.928Z,98669.30
2019-05-17T13:45:29.095Z,98661.76
2019-05-17T13:48:34.281Z,98661.76
2019-05-17T13:51:39.455Z,98663.54
2019-05-17T13:54:44.610Z,98660.09
2019-05-17T13:57:49.849Z,98661.92
2019-05-17T14:00:54.992Z,98657.93
2019-05-17T14:04:00.262Z,98656.22
2019-05-17T14:07:05.397Z,98643.55
2019-05-17T14:10:26.236Z,98646.56
2019-05-17T14:13:17.702Z,98636.11
2019-05-17T14:16:22.797Z,98641.38
2019-05-17T14:19:28.041Z,98637.05
2019-05-17T14:22:35.906Z,98642.36
2019-05-17T14:25:40.166Z,98636.19
2019-05-17T14:28:45.318Z,98641.05
2019-05-17T14:31:50.700Z,98630.45
2019-05-17T14:34:55.830Z,98630.45
2019-05-17T14:38:01.000Z,98633.00
2019-05-17T14:41:08.309Z,98626.81
2019-05-17T14:44:13.060Z,98620.45
2019-05-17T14:47:18.265Z,98623.76
2019-05-17T14:50:23.476Z,98622.36
2019-05-17T14:53:28.600Z,98613.36
2019-05-17T14:56:33.758Z,98613.13
2019-05-17T14:59:38.924Z,98607.77
2019-05-17T15:02:45.174Z,98606.61
2019-05-17T15:05:50.455Z,98607.88
2019-05-17T15:08:55.715Z,98607.88
2019-05-17T15:12:00.938Z,98596.88
2019-05-17T15:15:06.925Z,98599.77
2019-05-17T15:18:12.269Z,98586.66
2019-05-17T15:21:17.852Z,98579.77
2019-05-17T15:24:23.060Z,98581.63
2019-05-17T15:27:28.191Z,98576.33
2019-05-17T15:30:33.304Z,98570.86
2019-05-17T15:33:38.448Z,98577.53
2019-05-17T15:36:43.641Z,98572.91
2019-05-17T15:39:48.800Z,98574.77
2019-05-17T15:42:54.054Z,98565.91
2019-05-17T15:45:59.339Z,98564.41
2019-05-17T15:49:04.507Z,98563.33
2019-05-17T15:52:09.754Z,98551.60
2019-05-17T15:55:15.386Z,98551.64
2019-05-17T15:58:23.197Z,98543.77
2019-05-17T16:01:29.270Z,98544.85
2019-05-17T16:04:34.547Z,98540.15
2019-05-17T16:07:39.710Z,98538.19
2019-05-17T16:10:44.888Z,98532.82
2019-05-17T16:13:50.101Z,98537.68
2019-05-17T16:16:55.258Z,98534.14
2019-05-17T16:20:00.408Z,98530.78
2019-05-17T16:23:05.571Z,98530.02
2019-05-17T16:26:10.952Z,98518.62
2019-05-17T16:29:16.194Z,98521.70
2019-05-17T16:32:21.456Z,98519.27
2019-05-17T16:35:26.709Z,98517.36
2019-05-17T16:38:31.878Z,98508.55
2019-05-17T16:41:37.123Z,98509.27
2019-05-17T16:44:42.352Z,98508.52
2019-05-17T16:47:47.465Z,98514.45
2019-05-17T16:50:52.639Z,98505.55
2019-05-17T16:53:57.801Z,98513.06
2019-05-17T16:57:02.945Z,98511.03
2019-05-17T17:00:24.633Z,98509.47
2019-05-17T17:03:43.831Z,98499.78
2019-05-17T17:06:36.716Z,98507.10
2019-05-17T17:09:42.305Z,98498.38
2019-05-17T17:12:47.693Z,98501.60
2019-05-17T17:15:52.851Z,98498.48
2019-05-17T17:18:58.019Z,98501.50
2019-05-17T17:22:03.200Z,98506.30
2019-05-17T17:25:08.560Z,98503.87
2019-05-17T17:28:13.846Z,98502.44
2019-05-17T17:31:18.970Z,98496.00
2019-05-17T17:34:24.140Z,98492.17
2019-05-17T17:37:29.358Z,98499.29
2019-05-17T17:40:34.556Z,98485.79
2019-05-17T17:43:39.779Z,98490.91
2019-05-17T17:46:44.936Z,98486.37
2019-05-17T17:49:50.147Z,98495.89
2019-05-17T17:52:55.289Z,98488.77
2019-05-17T17:56:00.517Z,98486.52
2019-05-17T17:59:05.783Z,98485.16
2019-05-17T18:02:11.098Z,98485.97
2019-05-17T18:05:16.830Z,98491.00
2019-05-17T18:08:22.209Z,98495.61
2019-05-17T18:11:27.340Z,98493.89
2019-05-17T18:14:32.540Z,98489.49
2019-05-17T18:17:39.478Z,98486.55
2019-05-17T18:20:44.647Z,98489.17
2019-05-17T18:23:49.975Z,98494.29
2019-05-17T18:26:56.650Z,98496.16
2019-05-17T18:30:01.970Z,98505.63
2019-05-17T18:33:07.672Z,98505.81
2019-05-17T18:36:13.622Z,98509.43
2019-05-17T18:39:18.969Z,98511.39
2019-05-17T18:42:24.435Z,98517.56
2019-05-17T18:45:30.167Z,98520.03
2019-05-17T18:48:35.548Z,98521.69
2019-05-17T18:51:40.726Z,98521.98
2019-05-17T18:54:46.100Z,98524.15
2019-05-17T18:57:51.299Z,98524.97
2019-05-17T19:00:56.437Z,98523.47
2019-05-17T19:04:01.718Z,98526.58
2019-05-17T19:07:06.877Z,98527.70
2019-05-17T19:10:12.695Z,98534.81
2019-05-17T19:13:18.066Z,98537.55
2019-05-17T19:16:23.213Z,98547.37
2019-05-17T19:19:28.451Z,98583.75
2019-05-17T19:22:33.663Z,98580.22
2019-05-17T19:25:38.831Z,98588.50
2019-05-17T19:28:44.016Z,98580.89
2019-05-17T19:31:49.197Z,98603.88
2019-05-17T19:34:54.484Z,98614.29
2019-05-17T19:37:59.849Z,98627.86
2019-05-17T19:41:04.968Z,98633.02
2019-05-17T19:44:10.280Z,98629.70
2019-05-17T19:47:15.429Z,98632.64
2019-05-17T19:50:20.737Z,98628.33
2019-05-17T19:53:26.838Z,98630.73
2019-05-17T19:56:31.973Z,98639.36
2019-05-17T19:59:37.148Z,98642.88
2019-05-17T20:02:42.265Z,98640.48
2019-05-17T20:05:47.501Z,98649.42
2019-05-17T20:08:53.266Z,98644.83
2019-05-17T20:11:58.449Z,98646.41
2019-05-17T20:15:16.918Z,98636.92
2019-05-17T20:18:11.939Z,98638.55
2019-05-17T20:21:17.151Z,98637.42
2019-05-17T20:24:22.448Z,98643.16
2019-05-17T20:27:27.716Z,98643.87
2019-05-17T20:30:32.878Z,98645.97
2019-05-17T20:33:38.024Z,98646.66
2019-05-17T20:36:43.284Z,98655.34
2019-05-17T20:39:48.482Z,98660.50
2019-05-17T20:42:53.623Z,98670.03
2019-05-17T20:45:58.821Z,98668.88
2019-05-17T20:49:03.978Z,98666.99
2019-05-17T20:52:09.375Z,98665.09
2019-05-17T20:55:14.709Z,98662.55
2019-05-17T20:58:19.850Z,98654.51
2019-05-17T21:01:25.009Z,98656.28
2019-05-17T21:04:30.204Z,98646.75
2019-05-17T21:07:35.432Z,98625.33
2019-05-17T21:10:40.765Z,98612.77
2019-05-17T21:13:45.956Z,98613.43
2019-05-17T21:16:51.221Z,98623.14
2019-05-17T21:19:56.340Z,98609.31
2019-05-17T21:23:01.528Z,98611.17
2019-05-17T21:26:06.715Z,98600.03
2019-05-17T21:29:11.903Z,98604.05
2019-05-17T21:32:17.096Z,98592.72
2019-05-17T21:35:22.233Z,98588.08
2019-05-17T21:38:27.402Z,98593.80
2019-05-17T21:41:32.645Z,98610.34
2019-05-17T21:44:37.781Z,98599.82
2019-05-17T21:47:43.021Z,98601.35
2019-05-17T21:50:48.167Z,98596.14
2019-05-17T21:53:53.317Z,98598.84
2019-05-17T21:56:58.426Z,98595.36
2019-05-17T22:00:03.839Z,98593.36
2019-05-17T22:03:10.618Z,98597.02
2019-05-17T22:06:16.167Z,98602.64
2019-05-17T22:09:21.303Z,98604.25
2019-05-17T22:12:26.521Z,98602.76
2019-05-17T22:15:31.673Z,98608.16
2019-05-17T22:18:37.050Z,98609.72
2019-05-17T22:21:42.150Z,98612.63
2019-05-17T22:24:47.402Z,98614.47
2019-05-17T22:27:52.508Z,98626.82
2019-05-17T22:30:57.734Z,98630.16
2019-05-17T22:34:02.916Z,98629.89
2019-05-17T22:37:09.219Z,98628.33
2019-05-17T22:40:14.462Z,98628.77
2019-05-17T22:43:19.689Z,98633.23
2019-05-17T22:46:35.619Z,98620.23
2019-05-17T22:49:31.714Z,98624.13
2019-05-17T22:52:36.879Z,98626.18
2019-05-17T22:55:42.037Z,98636.47
2019-05-17T22:58:47.174Z,98630.59
2019-05-17T23:01:52.329Z,98635.42
2019-05-17T23:04:57.549Z,98631.03
2019-05-17T23:08:02.788Z,98623.41
2019-05-17T23:11:08.118Z,98625.56
2019-05-17T23:14:13.271Z,98625.64
2019-05-17T23:17:18.388Z,98626.11
2019-05-17T23:20:23.729Z,98618.58
2019-05-17T23:23:28.891Z,98620.70
2019-05-17T23:26:34.083Z,98624.72
2019-05-17T23:29:41.181Z,98617.09
2019-05-17T23:32:45.993Z,98613.78
2019-05-17T23:35:51.229Z,98610.16
2019-05-17T23:38:56.365Z,98611.05
2019-05-17T23:42:01.590Z,98606.38
2019-05-17T23:45:07.608Z,98601.30
2019-05-17T23:48:12.793Z,98594.98
2019-05-17T23:51:17.975Z,98599.75
2019-05-17T23:54:23.149Z,98595.05
2019-05-17T23:57:28.314Z,98596.41
